Time;durP1;ratioP1;P1;durP2;ratioP2;P2;SDS_P1;SDS_P2;PMS_P1;PMS_P2;Temp;Humidity;BMP_temperature;BMP_pressure;BME280_temperature;BME280_humidity;BME280_pressure;Samples;Min_cycle;Max_cycle;Signal;HPM_P1;HPM_P2
2021/12/06 00:01:08;;;;;;;23.55;12.68;;;;;;;-1.61;76.95;99623.19;4937607;28;20106;-72
2021/12/06 00:03:54;;;;;;;22.00;11.60;;;;;;;-1.58;76.57;99615.25;4937284;28;20851;-73
2021/12/06 00:06:20;;;;;;;19.40;8.80;;;;;;;-1.63;76.67;99613.66;4937778;28;20047;-69
2021/12/06 00:08:45;;;;;;;18.30;10.00;;;;;;;-1.81;76.97;99624.53;4937361;28;20441;-73
2021/12/06 00:11:11;;;;;;;18.27;11.25;;;;;;;-1.81;76.65;99614.09;4937329;28;20440;-69
2021/12/06 00:13:38;;;;;;;21.75;11.18;;;;;;;-1.84;76.49;99612.41;4937117;28;20045;-70
2021/12/06 00:16:08;;;;;;;19.83;10.48;;;;;;;-1.92;77.43;99620.38;4919634;28;20074;-66
2021/12/06 00:18:33;;;;;;;20.75;10.55;;;;;;;-1.85;77.13;99614.16;4937222;28;20081;-67
2021/12/06 00:20:58;;;;;;;22.48;11.85;;;;;;;-1.98;76.94;99610.06;4937111;28;20046;-69
2021/12/06 00:23:23;;;;;;;19.95;10.18;;;;;;;-1.90;77.01;99615.13;4937569;28;20074;-71
2021/12/06 00:25:48;;;;;;;18.77;10.82;;;;;;;-1.81;76.99;99616.69;4919983;28;20089;-70
2021/12/06 00:28:12;;;;;;;22.92;13.13;;;;;;;-1.98;77.09;99615.28;4937197;28;20117;-64
2021/12/06 00:30:37;;;;;;;21.58;12.23;;;;;;;-2.06;77.60;99603.28;4919659;28;20045;-68
2021/12/06 00:33:02;;;;;;;20.30;10.43;;;;;;;-2.00;77.88;99613.59;4937523;28;20560;-74
2021/12/06 00:35:29;;;;;;;22.63;10.65;;;;;;;-1.98;78.01;99601.38;4937223;28;20054;-68
2021/12/06 00:37:56;;;;;;;20.13;10.05;;;;;;;-1.90;77.42;99615.97;4919701;28;20121;-68
2021/12/06 00:40:23;;;;;;;16.70;10.15;;;;;;;-1.92;77.40;99611.72;4936906;28;20057;-68
2021/12/06 00:42:48;;;;;;;21.85;10.90;;;;;;;-1.93;77.58;99615.22;4903729;28;20042;-69
2021/12/06 00:45:13;;;;;;;19.75;11.98;;;;;;;-1.89;77.72;99624.69;4920103;28;20058;-67
2021/12/06 00:47:39;;;;;;;18.67;10.57;;;;;;;-1.91;77.63;99616.00;4919784;28;20170;-70
2021/12/06 00:50:06;;;;;;;25.25;13.70;;;;;;;-2.08;77.39;99613.78;4919455;28;20089;-76
2021/12/06 00:52:31;;;;;;;23.10;10.80;;;;;;;-2.00;77.51;99604.00;4937373;28;20509;-74
2021/12/06 00:54:55;;;;;;;17.52;9.63;;;;;;;-1.89;77.73;99622.06;4937294;28;20536;-74
2021/12/06 00:57:20;;;;;;;19.58;11.07;;;;;;;-1.83;77.17;99604.53;4919720;28;20039;-73
2021/12/06 00:59:45;;;;;;;16.50;8.63;;;;;;;-1.71;77.31;99615.59;4936976;28;20137;-72
2021/12/06 01:02:12;;;;;;;19.55;10.18;;;;;;;-1.83;77.01;99603.66;4919404;28;20056;-74
2021/12/06 01:04:40;;;;;;;20.50;11.70;;;;;;;-1.95;76.92;99607.41;4919333;28;20535;-69
2021/12/06 01:07:05;;;;;;;18.05;9.82;;;;;;;-1.94;77.64;99613.50;4903686;28;20055;-69
2021/12/06 01:09:30;;;;;;;19.15;9.65;;;;;;;-1.97;77.21;99603.97;4937370;28;20501;-75
2021/12/06 01:11:55;;;;;;;20.63;10.73;;;;;;;-1.89;76.85;99612.47;4903783;28;20532;-71
2021/12/06 01:14:20;;;;;;;23.48;10.60;;;;;;;-1.94;77.37;99611.72;4904147;28;20074;-71
2021/12/06 01:16:45;;;;;;;20.45;10.52;;;;;;;-1.92;77.39;99606.47;4921411;28;20053;-71
2021/12/06 01:19:12;;;;;;;18.13;11.20;;;;;;;-2.04;77.40;99596.28;4922876;28;20046;-73
2021/12/06 01:21:44;;;;;;;21.27;11.35;;;;;;;-2.09;77.15;99599.00;4923623;28;20050;-74
2021/12/06 01:24:11;;;;;;;20.67;10.88;;;;;;;-1.98;77.35;99602.22;4920098;28;20110;-73
2021/12/06 01:40:00;;;;;;;19.33;10.98;;;;;;;-1.91;77.05;99613.41;4809173;29;20194;-76
2021/12/06 01:42:25;;;;;;;25.13;11.18;;;;;;;-1.90;76.77;99617.72;4825230;29;20065;-75
2021/12/06 01:44:54;;;;;;;16.45;8.20;;;;;;;-1.74;76.74;99616.53;4809309;29;20109;-76
2021/12/06 01:47:24;;;;;;;21.17;11.07;;;;;;;-1.98;76.47;99620.53;4824378;29;20119;-72
2021/12/06 01:49:57;;;;;;;21.05;11.10;;;;;;;-2.05;76.22;99616.34;4824424;29;20052;-74
2021/12/06 01:52:33;;;;;;;18.92;10.43;;;;;;;-1.95;76.23;99620.47;4825469;29;20062;-72
2021/12/06 01:55:01;;;;;;;21.08;10.70;;;;;;;-1.91;76.34;99622.09;4824245;29;20053;-71
2021/12/06 01:57:29;;;;;;;15.57;8.70;;;;;;;-1.84;76.76;99633.28;4808198;29;20080;-73
2021/12/06 01:59:55;;;;;;;21.83;10.43;;;;;;;-1.67;76.24;99630.28;4823757;29;20053;-72
2021/12/06 02:02:21;;;;;;;20.92;11.23;;;;;;;-1.78;75.94;99637.50;4840248;29;20428;-74
2021/12/06 02:04:46;;;;;;;18.55;10.35;;;;;;;-1.89;76.00;99638.59;4828027;29;20464;-72
2021/12/06 02:07:16;;;;;;;22.05;10.98;;;;;;;-2.01;76.20;99633.63;4816954;29;20060;-67
2021/12/06 02:09:45;;;;;;;20.80;10.48;;;;;;;-1.88;76.74;99635.09;4831751;29;20052;-68
2021/12/06 02:12:12;;;;;;;23.75;11.15;;;;;;;-1.84;76.50;99638.53;4829411;29;20125;-69
2021/12/06 02:17:14;;;;;;;18.40;10.23;;;;;;;-1.89;76.15;99637.75;4939580;28;20050;-69
2021/12/06 02:19:45;;;;;;;18.85;10.77;;;;;;;-1.88;76.45;99645.56;4906323;28;20057;-68
2021/12/06 02:22:12;;;;;;;18.73;10.50;;;;;;;-1.88;76.23;99650.78;4922653;28;20564;-68
2021/12/06 02:24:38;;;;;;;17.67;10.35;;;;;;;-1.97;76.40;99650.13;4922676;28;20053;-68
2021/12/06 02:27:09;;;;;;;18.52;8.45;;;;;;;-1.97;76.14;99648.38;4907225;28;20057;-68
2021/12/06 02:29:35;;;;;;;18.33;10.48;;;;;;;-2.05;76.23;99642.44;4922560;28;20117;-68
2021/12/06 02:32:05;;;;;;;18.27;10.15;;;;;;;-1.97;76.62;99645.75;4923207;28;20051;-71
2021/12/06 02:34:30;;;;;;;16.95;10.35;;;;;;;-1.93;76.23;99642.19;4940354;28;20625;-69
2021/12/06 02:36:55;;;;;;;17.85;11.00;;;;;;;-1.90;76.47;99644.72;4906785;28;20552;-73
2021/12/06 02:39:23;;;;;;;21.33;10.52;;;;;;;-1.85;76.40;99648.09;4922302;28;20043;-64
2021/12/06 02:41:51;;;;;;;20.02;9.40;;;;;;;-1.79;76.30;99647.09;4921560;28;20505;-73
2021/12/06 02:44:17;;;;;;;19.15;10.40;;;;;;;-1.84;76.17;99651.59;4909945;28;20429;-70
2021/12/06 02:46:43;;;;;;;21.25;9.35;;;;;;;-1.93;76.07;99642.19;4917988;28;20058;-70
2021/12/06 02:49:08;;;;;;;19.25;10.90;;;;;;;-1.94;76.51;99658.75;4918892;28;20042;-70
2021/12/06 02:51:32;;;;;;;18.50;9.60;;;;;;;-1.87;76.60;99665.56;4921187;28;20054;-72
2021/12/06 02:53:57;;;;;;;18.83;10.95;;;;;;;-1.86;75.93;99659.44;4935700;28;20043;-67
2021/12/06 02:56:50;;;;;;;14.07;8.60;;;;;;;-1.78;76.44;99664.50;4933943;28;20050;-71
2021/12/06 02:59:15;;;;;;;15.02;8.38;;;;;;;-1.73;76.31;99660.06;4913890;29;20082;-67
2021/12/06 03:01:44;;;;;;;20.88;10.27;;;;;;;-1.68;76.56;99667.78;4921904;29;20055;-74
2021/12/06 03:04:09;;;;;;;17.73;10.18;;;;;;;-1.71;76.00;99666.13;4888352;29;20050;-72
2021/12/06 03:06:35;;;;;;;19.20;10.45;;;;;;;-1.67;75.68;99669.50;4916504;29;20507;-71
2021/12/06 03:09:07;;;;;;;22.33;10.75;;;;;;;-1.60;75.95;99676.34;4920730;28;20047;-73
2021/12/06 03:11:41;;;;;;;19.98;10.15;;;;;;;-1.48;75.88;99681.28;4904710;29;20047;-71
2021/12/06 03:14:09;;;;;;;19.67;9.95;;;;;;;-1.59;76.23;99668.47;4922244;28;20058;-76
2021/12/06 03:16:35;;;;;;;16.10;8.18;;;;;;;-1.59;76.46;99678.91;4919489;28;20065;-68
2021/12/06 03:19:00;;;;;;;22.83;10.43;;;;;;;-1.69;75.96;99676.53;4902655;29;20125;-65
2021/12/06 03:21:26;;;;;;;12.60;7.38;;;;;;;-1.67;75.96;99675.59;4918165;29;20057;-63
2021/12/06 03:23:54;;;;;;;14.98;8.48;;;;;;;-1.59;76.42;99678.06;4918179;29;20584;-63
2021/12/06 03:26:19;;;;;;;17.20;8.77;;;;;;;-1.62;76.15;99678.97;4918323;29;20051;-63
2021/12/06 03:28:46;;;;;;;25.35;11.18;;;;;;;-1.79;76.20;99672.38;4902074;29;20047;-62
2021/12/06 03:31:15;;;;;;;18.05;10.48;;;;;;;-1.86;76.76;99675.13;4918101;29;20050;-62
2021/12/06 03:33:42;;;;;;;18.92;9.68;;;;;;;-1.89;76.23;99677.78;4919236;28;20113;-62
2021/12/06 03:36:09;;;;;;;21.00;10.75;;;;;;;-1.85;76.54;99684.69;4919277;28;20047;-65
2021/12/06 03:38:36;;;;;;;17.58;9.20;;;;;;;-1.85;76.78;99676.84;4917788;29;20054;-64
2021/12/06 03:41:03;;;;;;;24.75;12.15;;;;;;;-1.84;76.46;99683.81;4917998;29;20406;-63
2021/12/06 03:43:29;;;;;;;24.58;10.77;;;;;;;-1.94;76.65;99682.28;4902328;29;20047;-64
2021/12/06 03:45:54;;;;;;;21.58;11.23;;;;;;;-1.88;76.45;99679.53;4901777;29;20055;-62
2021/12/06 03:48:19;;;;;;;24.25;12.23;;;;;;;-1.76;76.66;99690.59;4918682;29;20043;-61
2021/12/06 03:50:45;;;;;;;21.75;12.07;;;;;;;-1.86;76.05;99696.03;4918703;29;20109;-61
2021/12/06 03:53:10;;;;;;;21.90;12.48;;;;;;;-2.05;76.94;99688.59;4919072;29;20042;-63
2021/12/06 03:55:35;;;;;;;24.60;12.88;;;;;;;-2.05;76.61;99689.47;4902377;29;20046;-61
2021/12/06 03:58:01;;;;;;;24.67;11.85;;;;;;;-2.03;77.24;99700.72;4917803;29;20058;-60
2021/12/06 04:00:26;;;;;;;28.20;13.70;;;;;;;-1.99;76.83;99702.38;4917517;29;20047;-61
2021/12/06 04:02:55;;;;;;;22.38;12.32;;;;;;;-1.97;76.79;99698.00;4901711;29;20091;-61
2021/12/06 04:05:21;;;;;;;20.13;9.55;;;;;;;-1.85;76.64;99709.97;4917676;29;20082;-61
2021/12/06 04:07:46;;;;;;;23.48;12.27;;;;;;;-2.00;76.06;99703.28;4917820;29;20047;-62
2021/12/06 04:10:12;;;;;;;22.80;11.77;;;;;;;-1.87;76.66;99719.56;4917587;29;20043;-62
2021/12/06 04:12:39;;;;;;;24.55;13.65;;;;;;;-1.98;76.50;99713.69;4917635;29;20130;-61
2021/12/06 11:32:53;;;;;;;19.50;10.30;;;;;;;-3.67;78.15;99924.91;4842819;29;20060;-64
2021/12/06 11:35:24;;;;;;;14.70;8.25;;;;;;;-3.55;77.69;99923.91;4862852;29;20048;-65
2021/12/06 11:37:52;;;;;;;23.92;10.40;;;;;;;-3.60;77.84;99929.16;4844664;29;20104;-66
2021/12/06 11:40:21;;;;;;;18.42;9.82;;;;;;;-3.65;77.27;99930.97;4861608;29;20043;-65
2021/12/06 11:43:06;;;;;;;22.83;13.38;;;;;;;-3.56;77.61;99927.41;4845983;29;20048;-64
2021/12/06 11:45:40;;;;;;;19.13;10.32;;;;;;;-3.54;78.11;99923.91;4862695;29;20048;-64
2021/12/06 11:48:06;;;;;;;29.77;12.70;;;;;;;-3.54;77.33;99929.13;4862526;29;20044;-65
2021/12/06 11:50:33;;;;;;;20.85;10.43;;;;;;;-3.67;77.19;99932.72;4862406;29;20134;-64
2021/12/06 11:53:06;;;;;;;22.80;10.85;;;;;;;-3.69;78.18;99937.94;4845814;29;20044;-65
2021/12/06 11:55:31;;;;;;;20.27;10.55;;;;;;;-3.68;78.04;99950.09;4845715;29;20411;-65
2021/12/06 11:57:56;;;;;;;23.27;11.55;;;;;;;-3.67;78.20;99944.00;4862438;29;20092;-65
2021/12/06 12:00:23;;;;;;;24.88;11.05;;;;;;;-3.60;78.34;99944.78;4862624;29;20045;-64
2021/12/06 12:02:57;;;;;;;23.13;10.15;;;;;;;-3.36;78.24;99941.06;4845400;29;20404;-64
2021/12/06 12:05:32;;;;;;;25.02;12.50;;;;;;;-3.34;78.08;99934.97;4862422;29;20076;-64
2021/12/06 12:08:11;;;;;;;29.13;13.82;;;;;;;-3.40;77.29;99931.59;4862063;29;20448;-65
2021/12/06 12:10:38;;;;;;;28.63;11.98;;;;;;;-3.52;78.34;99929.97;4845560;29;20048;-67
2021/12/06 12:13:05;;;;;;;21.88;9.73;;;;;;;-3.43;77.86;99935.06;4862320;29;20532;-66
2021/12/06 12:15:30;;;;;;;25.73;12.48;;;;;;;-3.41;77.69;99933.31;4861027;29;20389;-67
2021/12/06 12:17:55;;;;;;;27.80;12.70;;;;;;;-3.45;78.21;99913.38;4845324;29;20411;-66
2021/12/06 12:20:24;;;;;;;31.77;12.77;;;;;;;-3.38;78.07;99924.59;4845168;29;20491;-65
2021/12/06 12:22:55;;;;;;;22.45;10.88;;;;;;;-3.43;78.24;99918.56;4845324;29;20103;-66
2021/12/06 12:26:00;;;;;;;24.75;11.30;;;;;;;-3.45;77.97;99925.53;4845328;29;20468;-64
2021/12/06 12:30:38;;;;;;;24.90;9.55;;;;;;;-3.34;77.98;99914.13;4861156;29;20283;-65
2021/12/06 12:33:06;;;;;;;27.02;13.27;;;;;;;-3.37;77.51;99921.97;4861517;29;20199;-66
2021/12/06 12:35:32;;;;;;;25.23;10.90;;;;;;;-3.31;77.26;99921.06;4861675;29;20046;-65
2021/12/06 12:37:58;;;;;;;34.03;15.13;;;;;;;-3.33;77.71;99918.47;4861695;29;20053;-66
2021/12/06 12:40:26;;;;;;;36.28;15.73;;;;;;;-3.37;76.85;99924.56;4861766;29;20048;-68
2021/12/06 12:43:06;;;;;;;25.08;10.02;;;;;;;-3.33;77.45;99925.41;4844685;29;20063;-64
2021/12/06 12:45:45;;;;;;;29.15;13.10;;;;;;;-3.41;77.66;99928.13;4861522;29;20135;-68
2021/12/06 12:48:12;;;;;;;25.75;12.20;;;;;;;-3.51;77.43;99931.69;4861599;29;20044;-69
2021/12/06 12:50:37;;;;;;;30.48;13.90;;;;;;;-3.49;77.37;99932.53;4860917;29;20049;-66
2021/12/06 12:53:14;;;;;;;23.27;11.20;;;;;;;-3.31;78.22;99934.94;4844890;29;20810;-65
2021/12/06 12:55:48;;;;;;;28.55;11.70;;;;;;;-3.22;77.86;99933.13;4861537;29;20052;-67
2021/12/06 12:58:17;;;;;;;23.48;10.10;;;;;;;-3.29;77.11;99927.13;4861408;29;20052;-65
2021/12/06 13:00:45;;;;;;;27.60;12.85;;;;;;;-3.35;77.53;99933.25;4844732;29;20259;-66
2021/12/06 13:03:43;;;;;;;26.05;13.57;;;;;;;-3.36;77.35;99928.91;4861505;29;20471;-66
2021/12/06 13:06:30;;;;;;;23.77;12.07;;;;;;;-3.38;77.74;99927.19;4861269;29;20407;-67
2021/12/06 13:08:58;;;;;;;28.80;11.63;;;;;;;-3.13;77.27;99933.88;4861403;29;20166;-66
2021/12/06 13:11:27;;;;;;;33.33;13.80;;;;;;;-3.23;77.37;99926.16;4861346;29;20083;-68
2021/12/06 13:13:53;;;;;;;17.25;7.55;;;;;;;-3.25;77.58;99920.97;4861327;29;20048;-66
2021/12/06 13:16:43;;;;;;;32.08;11.50;;;;;;;-3.20;77.21;99928.75;4844188;29;20140;-67
2021/12/06 13:19:23;;;;;;;29.25;13.18;;;;;;;-3.28;77.35;99918.41;4859291;29;20052;-66
2021/12/06 13:22:10;;;;;;;32.13;11.98;;;;;;;-3.09;77.70;99913.84;4860459;29;20052;-66
2021/12/06 13:24:55;;;;;;;36.28;13.70;;;;;;;-3.12;76.99;99906.91;4844128;29;20100;-66
2021/12/06 13:28:01;;;;;;;29.17;14.30;;;;;;;-3.23;77.90;99908.78;4844199;29;20083;-67
2021/12/06 13:30:31;;;;;;;29.48;13.18;;;;;;;-3.27;77.83;99912.28;4803112;29;20518;-67
2021/12/06 13:33:00;;;;;;;31.40;12.93;;;;;;;-3.26;77.50;99915.78;4773148;29;20061;-66
2021/12/06 13:35:38;;;;;;;22.25;10.00;;;;;;;-3.08;78.16;99912.97;4803304;29;20524;-67
2021/12/06 13:38:21;;;;;;;27.73;11.48;;;;;;;-2.94;77.07;99908.44;4803242;29;20060;-66
2021/12/06 13:40:55;;;;;;;24.77;11.77;;;;;;;-3.08;76.93;99910.34;4803339;29;20137;-67
2021/12/06 13:43:26;;;;;;;23.83;11.83;;;;;;;-3.12;77.40;99921.69;4789020;29;20054;-67
2021/12/06 13:45:55;;;;;;;31.05;14.70;;;;;;;-3.12;77.70;99899.09;4803646;29;20056;-66
2021/12/06 13:48:38;;;;;;;28.90;11.93;;;;;;;-3.12;77.37;99896.47;4803341;29;20145;-66
2021/12/06 13:51:28;;;;;;;29.10;12.60;;;;;;;-3.09;77.89;99896.44;4788493;29;20113;-67
2021/12/06 13:53:56;;;;;;;31.88;13.48;;;;;;;-3.10;77.48;99896.47;4788246;29;20097;-66
2021/12/06 13:56:41;;;;;;;38.97;14.18;;;;;;;-3.08;77.93;99897.31;4803549;29;20050;-67
2021/12/06 13:59:08;;;;;;;23.23;11.55;;;;;;;-3.15;77.96;99898.25;4788280;29;20050;-67
2021/12/06 14:01:35;;;;;;;25.40;11.90;;;;;;;-3.11;77.68;99908.63;4805083;29;20054;-66
2021/12/06 14:04:04;;;;;;;33.45;15.55;;;;;;;-2.99;78.44;99913.72;4807076;29;20060;-65
2021/12/06 14:07:01;;;;;;;29.63;13.63;;;;;;;-2.81;77.02;99912.59;4823523;29;20048;-66
2021/12/06 14:09:32;;;;;;;28.65;10.48;;;;;;;-2.77;77.14;99908.22;4864363;29;20076;-68
2021/12/06 14:12:04;;;;;;;22.05;10.73;;;;;;;-2.84;76.66;99907.44;4847699;29;20048;-68
2021/12/06 14:14:36;;;;;;;21.98;10.85;;;;;;;-2.91;76.48;99908.38;4864953;29;20064;-68
2021/12/06 14:17:01;;;;;;;19.30;10.90;;;;;;;-2.85;75.86;99917.91;4832141;29;20047;-67
2021/12/06 14:19:28;;;;;;;23.63;10.45;;;;;;;-2.90;76.28;99901.44;4847805;29;20173;-67
2021/12/06 14:21:55;;;;;;;33.38;13.77;;;;;;;-3.06;76.30;99911.22;4847410;29;20052;-66
2021/12/06 14:24:22;;;;;;;25.33;13.52;;;;;;;-3.08;76.84;99920.78;4864285;29;20111;-66
2021/12/06 14:26:46;;;;;;;20.02;10.30;;;;;;;-3.05;77.25;99920.75;4864407;29;20052;-67
2021/12/06 14:29:17;;;;;;;29.23;11.00;;;;;;;-2.87;75.94;99917.03;4831751;29;20049;-66
2021/12/06 14:31:48;;;;;;;26.33;13.52;;;;;;;-3.03;76.39;99918.97;4864111;29;20053;-67
2021/12/06 14:34:13;;;;;;;21.33;10.68;;;;;;;-3.00;76.60;99918.94;4864519;29;20058;-66
2021/12/06 14:36:39;;;;;;;28.95;13.65;;;;;;;-3.03;76.42;99922.44;4847334;29;20044;-65
2021/12/06 14:39:10;;;;;;;19.65;10.48;;;;;;;-3.07;76.48;99917.31;4847514;29;20072;-66
2021/12/06 14:41:35;;;;;;;18.00;7.82;;;;;;;-2.98;76.43;99920.66;4864030;29;20049;-65
2021/12/06 14:44:00;;;;;;;21.73;8.18;;;;;;;-2.93;76.60;99926.66;4864234;29;20067;-66
2021/12/06 14:46:25;;;;;;;20.95;7.47;;;;;;;-2.88;76.81;99918.78;4864931;29;20064;-66
2021/12/06 14:48:51;;;;;;;38.72;16.65;;;;;;;-2.88;75.39;99916.19;4865004;29;20049;-64
2021/12/06 14:51:17;;;;;;;29.20;11.80;;;;;;;-2.75;75.31;99922.97;4868788;29;20048;-65
2021/12/06 14:54:23;;;;;;;24.50;11.93;;;;;;;-2.80;75.24;99924.75;4838278;29;20048;-65
2021/12/06 14:56:52;;;;;;;20.77;9.35;;;;;;;-2.94;75.49;99919.75;4849942;29;20048;-65
2021/12/06 14:59:23;;;;;;;25.30;12.55;;;;;;;-3.09;76.14;99912.09;4870777;29;20079;-67
2021/12/06 15:01:49;;;;;;;32.95;12.43;;;;;;;-3.00;76.14;99918.94;4870704;29;20055;-64
2021/12/06 15:04:17;;;;;;;37.08;14.38;;;;;;;-3.06;76.03;99919.91;4871321;29;20132;-64
2021/12/06 15:06:44;;;;;;;33.30;14.35;;;;;;;-3.07;76.74;99928.59;4857279;29;20048;-66
2021/12/06 15:09:12;;;;;;;31.75;11.82;;;;;;;-2.96;76.28;99920.63;4867079;29;20052;-66
2021/12/06 15:11:37;;;;;;;31.98;15.15;;;;;;;-3.03;76.61;99918.97;4863184;29;20499;-66
2021/12/06 15:14:10;;;;;;;33.03;14.40;;;;;;;-2.93;76.72;99923.19;4832586;29;20121;-66
2021/12/06 15:16:35;;;;;;;33.63;14.55;;;;;;;-3.07;76.76;99927.72;4863441;29;20052;-65
2021/12/06 15:19:01;;;;;;;34.95;15.90;;;;;;;-3.07;76.75;99917.31;4863235;29;20052;-64
2021/12/06 15:21:29;;;;;;;33.88;14.38;;;;;;;-2.91;76.44;99921.44;4846356;29;20530;-65
2021/12/06 15:24:00;;;;;;;37.15;15.52;;;;;;;-2.85;76.15;99926.59;4863104;29;20056;-65
2021/12/06 15:26:41;;;;;;;39.30;17.67;;;;;;;-2.87;76.16;99922.25;4863227;29;20555;-65
2021/12/06 15:29:06;;;;;;;31.63;14.25;;;;;;;-2.97;76.84;99927.59;4862962;29;20048;-65
2021/12/06 15:31:32;;;;;;;24.30;11.15;;;;;;;-2.91;76.75;99924.03;4862765;29;20131;-66
2021/12/06 15:33:58;;;;;;;35.35;14.65;;;;;;;-2.81;76.68;99920.41;4863036;29;20135;-64
2021/12/06 15:36:25;;;;;;;43.95;18.45;;;;;;;-2.86;76.05;99918.78;4860931;29;20056;-78
2021/12/06 15:39:07;;;;;;;43.58;21.30;;;;;;;-2.84;75.84;99920.47;4864452;29;20044;-77
2021/12/06 15:41:39;;;;;;;26.00;12.02;;;;;;;-2.82;76.04;99912.66;4830668;29;20051;-76
2021/12/06 15:44:08;;;;;;;45.42;19.65;;;;;;;-2.82;75.99;99910.88;4845364;29;20059;-74
2021/12/06 15:46:39;;;;;;;44.45;19.48;;;;;;;-2.88;76.37;99912.69;4845621;29;20048;-75
2021/12/06 15:49:04;;;;;;;51.22;22.02;;;;;;;-2.85;76.20;99907.47;4862450;29;20051;-74
2021/12/06 15:51:40;;;;;;;42.08;19.73;;;;;;;-2.86;76.74;99901.38;4862127;29;20048;-69
2021/12/06 15:54:08;;;;;;;49.25;23.25;;;;;;;-2.87;76.59;99902.25;4845380;29;20393;-75
2021/12/06 15:56:35;;;;;;;51.00;20.95;;;;;;;-2.86;76.84;99898.75;4845765;29;20135;-71
2021/12/06 15:59:04;;;;;;;44.75;20.05;;;;;;;-2.91;76.74;99900.56;4844925;29;20044;-71
2021/12/06 16:01:29;;;;;;;42.25;18.63;;;;;;;-2.81;76.52;99898.69;4861962;29;20048;-71
2021/12/06 16:03:59;;;;;;;43.75;19.95;;;;;;;-2.80;76.30;99911.72;4845480;29;20048;-79
2021/12/06 16:06:24;;;;;;;41.03;18.63;;;;;;;-2.78;76.40;99894.31;4846719;29;20052;-70
2021/12/06 16:08:51;;;;;;;45.30;19.00;;;;;;;-2.81;76.21;99888.25;4845181;29;20052;-71
2021/12/06 16:11:20;;;;;;;41.83;18.52;;;;;;;-2.84;76.02;99894.41;4844944;29;20053;-70
2021/12/06 16:13:48;;;;;;;36.58;15.40;;;;;;;-2.69;76.02;99896.78;4844707;29;20055;-69
2021/12/06 16:16:17;;;;;;;34.47;16.63;;;;;;;-2.81;76.11;99896.06;4861289;29;20044;-70
2021/12/06 16:18:44;;;;;;;42.88;17.65;;;;;;;-2.90;76.17;99884.03;4844853;29;20052;-70
2021/12/06 16:21:13;;;;;;;32.60;14.77;;;;;;;-2.87;76.46;99877.91;4861445;29;20043;-70
2021/12/06 16:23:43;;;;;;;35.13;16.48;;;;;;;-2.79;76.13;99892.56;4829478;29;20045;-66
2021/12/06 16:26:11;;;;;;;25.25;11.23;;;;;;;-2.68;75.97;99874.16;4861430;29;20059;-66
2021/12/06 16:28:51;;;;;;;35.20;16.67;;;;;;;-2.76;75.57;99894.28;4861173;29;20041;-66
2021/12/06 16:31:20;;;;;;;32.50;14.25;;;;;;;-2.67;76.08;99892.41;4841516;29;20145;-74
2021/12/06 16:33:47;;;;;;;28.10;11.70;;;;;;;-2.69;75.72;99893.31;4842574;29;20057;-66
2021/12/06 16:36:24;;;;;;;39.00;16.38;;;;;;;-2.64;75.38;99870.63;4841244;29;20124;-66
2021/12/06 16:38:51;;;;;;;36.60;17.58;;;;;;;-2.68;75.02;99879.38;4842578;29;20060;-69
2021/12/06 16:41:19;;;;;;;31.17;15.15;;;;;;;-2.73;75.32;99882.06;4842120;29;20056;-66
2021/12/06 16:43:49;;;;;;;35.97;15.27;;;;;;;-2.76;75.58;99876.03;4841350;29;20053;-66
2021/12/06 16:46:16;;;;;;;33.28;19.25;;;;;;;-2.78;74.84;99865.59;4842316;29;20076;-66
2021/12/06 16:48:50;;;;;;;36.10;18.73;;;;;;;-2.81;75.99;99876.06;4842234;29;20449;-67
2021/12/06 16:51:33;;;;;;;36.65;16.55;;;;;;;-2.95;76.58;99870.19;4842353;29;20052;-67
2021/12/06 16:54:11;;;;;;;30.02;13.77;;;;;;;-2.73;76.39;99870.78;4842790;29;20416;-69
2021/12/06 16:56:36;;;;;;;26.58;14.43;;;;;;;-2.72;75.21;99877.72;4842935;29;20134;-68
2021/12/06 16:59:33;;;;;;;33.05;17.58;;;;;;;-2.80;75.25;99874.31;4826193;29;20061;-68
2021/12/06 17:02:21;;;;;;;28.10;12.77;;;;;;;-2.70;76.04;99873.31;4842168;29;20212;-64
2021/12/06 17:05:09;;;;;;;31.52;16.42;;;;;;;-2.74;75.36;99880.34;4842414;29;20045;-65
2021/12/06 17:07:36;;;;;;;39.78;15.80;;;;;;;-2.79;75.23;99876.91;4841642;29;20051;-66
2021/12/06 17:10:17;;;;;;;29.45;16.60;;;;;;;-2.88;75.94;99881.41;4842799;29;20056;-65
2021/12/06 17:12:47;;;;;;;39.38;16.67;;;;;;;-2.95;76.19;99870.19;4842780;29;20069;-66
2021/12/06 17:15:38;;;;;;;35.30;15.05;;;;;;;-2.88;76.73;99866.63;4842543;29;20050;-67
2021/12/06 17:18:08;;;;;;;32.75;13.15;;;;;;;-3.01;76.21;99871.13;4842526;29;20057;-65
2021/12/06 17:20:40;;;;;;;32.78;14.85;;;;;;;-2.93;76.62;99866.66;4842929;29;20466;-66
2021/12/06 17:23:10;;;;;;;32.60;16.05;;;;;;;-2.97;76.74;99866.75;4841373;29;20442;-66
2021/12/06 17:25:41;;;;;;;35.33;17.60;;;;;;;-3.00;77.34;99866.78;4842594;29;20462;-66
2021/12/06 17:28:18;;;;;;;20.23;9.98;;;;;;;-2.89;76.98;99871.84;4842496;29;20081;-65
2021/12/06 17:30:49;;;;;;;35.90;16.27;;;;;;;-2.86;76.31;99888.34;4845092;29;20111;-65
2021/12/06 17:33:22;;;;;;;44.30;19.10;;;;;;;-2.86;75.77;99874.44;4861062;29;20052;-65
2021/12/06 17:35:56;;;;;;;39.78;18.42;;;;;;;-2.91;75.94;99879.69;4846545;29;20135;-66
2021/12/06 17:38:22;;;;;;;40.28;18.13;;;;;;;-2.90;76.44;99878.81;4865076;29;20460;-65
2021/12/06 17:40:47;;;;;;;32.05;15.13;;;;;;;-2.93;76.52;99878.84;4864909;29;20131;-64
2021/12/06 17:43:13;;;;;;;32.53;15.40;;;;;;;-2.99;76.59;99864.16;4864863;29;20049;-66
2021/12/06 17:45:38;;;;;;;29.58;10.73;;;;;;;-2.88;76.93;99869.22;4847912;29;20048;-66
2021/12/06 17:48:05;;;;;;;39.70;20.00;;;;;;;-2.96;76.68;99858.91;4848018;29;20547;-65
2021/12/06 17:50:30;;;;;;;22.98;10.30;;;;;;;-2.82;76.94;99884.78;4864759;29;20057;-66
2021/12/06 17:52:55;;;;;;;37.47;19.08;;;;;;;-2.89;76.14;99864.88;4864863;29;20040;-65
2021/12/06 17:55:20;;;;;;;36.65;17.08;;;;;;;-2.75;75.66;99859.47;4863572;29;20052;-66
2021/12/06 17:57:52;;;;;;;33.05;13.05;;;;;;;-2.75;76.12;99859.47;4863062;29;20044;-66
2021/12/06 18:00:21;;;;;;;38.58;18.83;;;;;;;-2.95;76.11;99852.81;4863057;29;20108;-66
2021/12/06 18:02:47;;;;;;;30.50;12.57;;;;;;;-2.88;76.03;99866.63;4864434;29;20488;-66
2021/12/06 18:05:16;;;;;;;32.33;16.70;;;;;;;-2.79;76.31;99860.41;4864482;29;20060;-66
2021/12/06 18:07:44;;;;;;;33.85;15.93;;;;;;;-2.79;75.89;99856.03;4847561;29;20076;-65
2021/12/06 18:10:12;;;;;;;30.30;14.43;;;;;;;-2.88;76.24;99869.22;4864491;29;20104;-65
2021/12/06 18:12:37;;;;;;;30.08;13.20;;;;;;;-2.86;76.17;99864.84;4832137;29;20040;-65
2021/12/06 18:15:03;;;;;;;38.08;18.73;;;;;;;-2.90;75.96;99852.72;4864473;29;20055;-64
2021/12/06 18:17:31;;;;;;;30.23;15.68;;;;;;;-2.97;77.20;99845.88;4816764;29;20120;-66
2021/12/06 18:19:57;;;;;;;30.60;15.40;;;;;;;-2.80;76.87;99843.88;4864424;29;20415;-66
2021/12/06 18:22:23;;;;;;;33.08;16.58;;;;;;;-2.65;75.83;99842.81;4847821;29;20495;-67
2021/12/06 18:24:48;;;;;;;40.05;19.25;;;;;;;-2.72;75.48;99854.22;4865053;29;20100;-66
2021/12/06 18:27:18;;;;;;;30.08;14.05;;;;;;;-2.65;75.30;99830.63;4864370;29;20044;-67
2021/12/06 18:29:43;;;;;;;23.90;13.10;;;;;;;-2.67;74.75;99835.00;4846915;29;20527;-66
2021/12/06 18:32:12;;;;;;;21.08;11.35;;;;;;;-2.79;75.11;99840.41;4864177;29;20060;-66
2021/12/06 18:34:38;;;;;;;28.45;12.45;;;;;;;-2.76;75.55;99840.34;4847293;29;20056;-66
2021/12/06 18:37:03;;;;;;;24.60;12.10;;;;;;;-2.71;75.33;99833.31;4847399;29;20071;-66
2021/12/06 18:39:38;;;;;;;28.27;13.05;;;;;;;-2.69;75.09;99826.31;4863918;29;20857;-68
2021/12/06 18:42:05;;;;;;;32.55;16.67;;;;;;;-2.78;74.85;99826.47;4864009;29;20507;-64
2021/12/06 18:45:04;;;;;;;30.23;17.40;;;;;;;-2.97;75.22;99830.22;4847607;29;20419;-65
2021/12/06 18:47:32;;;;;;;32.13;14.80;;;;;;;-2.92;76.17;99820.56;4861959;29;20159;-67
2021/12/06 18:49:58;;;;;;;37.75;16.52;;;;;;;-2.77;75.31;99819.50;4863806;29;20048;-66
2021/12/06 18:52:26;;;;;;;25.30;13.73;;;;;;;-2.77;74.91;99816.91;4863971;29;20048;-66
2021/12/06 18:54:52;;;;;;;28.73;12.82;;;;;;;-2.81;75.10;99808.25;4863567;29;20059;-66
2021/12/06 18:57:18;;;;;;;18.42;10.70;;;;;;;-2.80;75.31;99812.56;4846797;29;20511;-66
2021/12/06 18:59:46;;;;;;;31.73;16.00;;;;;;;-2.73;74.68;99809.00;4863471;29;20055;-67
2021/12/06 19:02:13;;;;;;;26.05;13.48;;;;;;;-2.88;75.16;99806.63;4846706;29;20045;-66
2021/12/06 19:04:38;;;;;;;22.27;10.93;;;;;;;-2.85;74.80;99813.53;4863450;29;20052;-66